sensor_id;sensor_type;location;lat;lon;timestamp;temperature;humidity
64997;SHT31;51545;51.568;6.998;2022-08-19T00:00:06;18.94;89.01
64997;SHT31;51545;51.568;6.998;2022-08-19T00:02:34;18.94;88.76
64997;SHT31;51545;51.568;6.998;2022-08-19T00:05:00;19.01;88.39
64997;SHT31;51545;51.568;6.998;2022-08-19T00:07:26;18.85;88.31
64997;SHT31;51545;51.568;6.998;2022-08-19T00:09:52;18.82;88.37
64997;SHT31;51545;51.568;6.998;2022-08-19T00:12:19;18.82;88.67
64997;SHT31;51545;51.568;6.998;2022-08-19T00:14:44;18.85;88.34
64997;SHT31;51545;51.568;6.998;2022-08-19T00:17:10;18.81;88.79
64997;SHT31;51545;51.568;6.998;2022-08-19T00:19:35;18.82;88.42
64997;SHT31;51545;51.568;6.998;2022-08-19T00:22:01;18.74;88.88
64997;SHT31;51545;51.568;6.998;2022-08-19T00:24:27;18.64;89.50
64997;SHT31;51545;51.568;6.998;2022-08-19T00:26:54;18.64;89.52
64997;SHT31;51545;51.568;6.998;2022-08-19T00:29:20;18.74;89.31
64997;SHT31;51545;51.568;6.998;2022-08-19T00:31:47;18.77;88.94
64997;SHT31;51545;51.568;6.998;2022-08-19T00:34:13;18.70;89.01
64997;SHT31;51545;51.568;6.998;2022-08-19T00:36:40;18.72;89.03
64997;SHT31;51545;51.568;6.998;2022-08-19T00:39:06;18.67;88.59
64997;SHT31;51545;51.568;6.998;2022-08-19T00:41:33;18.60;88.74
64997;SHT31;51545;51.568;6.998;2022-08-19T00:43:59;18.50;89.21
64997;SHT31;51545;51.568;6.998;2022-08-19T00:46:28;18.44;89.57
64997;SHT31;51545;51.568;6.998;2022-08-19T00:48:54;18.47;89.82
64997;SHT31;51545;51.568;6.998;2022-08-19T00:51:22;18.46;89.99
64997;SHT31;51545;51.568;6.998;2022-08-19T00:53:50;18.54;89.59
64997;SHT31;51545;51.568;6.998;2022-08-19T00:56:15;18.49;89.19
64997;SHT31;51545;51.568;6.998;2022-08-19T00:58:42;18.47;89.26
64997;SHT31;51545;51.568;6.998;2022-08-19T01:01:08;18.29;90.45
64997;SHT31;51545;51.568;6.998;2022-08-19T01:03:34;18.37;89.86
64997;SHT31;51545;51.568;6.998;2022-08-19T01:05:59;18.29;89.77
64997;SHT31;51545;51.568;6.998;2022-08-19T01:08:25;18.27;90.13
64997;SHT31;51545;51.568;6.998;2022-08-19T01:10:54;18.25;89.79
64997;SHT31;51545;51.568;6.998;2022-08-19T01:13:23;18.22;89.96
64997;SHT31;51545;51.568;6.998;2022-08-19T01:15:52;18.16;90.38
64997;SHT31;51545;51.568;6.998;2022-08-19T01:18:22;18.05;91.28
64997;SHT31;51545;51.568;6.998;2022-08-19T01:20:50;18.10;91.46
64997;SHT31;51545;51.568;6.998;2022-08-19T01:23:17;18.20;91.32
64997;SHT31;51545;51.568;6.998;2022-08-19T01:25:44;18.26;90.87
64997;SHT31;51545;51.568;6.998;2022-08-19T01:28:16;18.27;90.55
64997;SHT31;51545;51.568;6.998;2022-08-19T01:30:43;18.20;90.87
64997;SHT31;51545;51.568;6.998;2022-08-19T01:33:09;18.23;90.56
64997;SHT31;51545;51.568;6.998;2022-08-19T01:35:35;18.18;90.33
64997;SHT31;51545;51.568;6.998;2022-08-19T01:38:02;18.16;90.42
64997;SHT31;51545;51.568;6.998;2022-08-19T01:40:33;18.08;91.13
64997;SHT31;51545;51.568;6.998;2022-08-19T01:43:01;18.10;91.18
64997;SHT31;51545;51.568;6.998;2022-08-19T01:45:28;18.16;90.94
64997;SHT31;51545;51.568;6.998;2022-08-19T01:47:54;18.25;90.75
64997;SHT31;51545;51.568;6.998;2022-08-19T01:50:21;18.25;90.66
64997;SHT31;51545;51.568;6.998;2022-08-19T01:52:47;18.20;90.93
64997;SHT31;51545;51.568;6.998;2022-08-19T01:55:16;18.19;90.97
64997;SHT31;51545;51.568;6.998;2022-08-19T01:57:46;18.23;90.81
64997;SHT31;51545;51.568;6.998;2022-08-19T02:00:16;18.26;90.48
64997;SHT31;51545;51.568;6.998;2022-08-19T02:02:43;18.26;90.33
64997;SHT31;51545;51.568;6.998;2022-08-19T02:05:09;18.22;90.03
64997;SHT31;51545;51.568;6.998;2022-08-19T02:07:36;18.13;90.53
64997;SHT31;51545;51.568;6.998;2022-08-19T02:10:05;18.06;91.18
64997;SHT31;51545;51.568;6.998;2022-08-19T02:12:32;18.13;90.83
64997;SHT31;51545;51.568;6.998;2022-08-19T02:14:58;18.13;90.73
64997;SHT31;51545;51.568;6.998;2022-08-19T02:17:26;18.08;90.39
64997;SHT31;51545;51.568;6.998;2022-08-19T02:19:53;17.98;91.23
64997;SHT31;51545;51.568;6.998;2022-08-19T02:22:19;17.99;90.82
64997;SHT31;51545;51.568;6.998;2022-08-19T02:24:45;17.97;90.94
64997;SHT31;51545;51.568;6.998;2022-08-19T02:27:13;17.99;90.95
64997;SHT31;51545;51.568;6.998;2022-08-19T02:29:39;17.88;91.66
64997;SHT31;51545;51.568;6.998;2022-08-19T02:32:04;18.01;91.47
64997;SHT31;51545;51.568;6.998;2022-08-19T02:34:30;18.06;90.91
64997;SHT31;51545;51.568;6.998;2022-08-19T02:36:56;18.01;91.01
64997;SHT31;51545;51.568;6.998;2022-08-19T02:39:21;17.97;91.01
64997;SHT31;51545;51.568;6.998;2022-08-19T02:41:46;17.92;91.50
64997;SHT31;51545;51.568;6.998;2022-08-19T02:44:12;17.97;91.37
64997;SHT31;51545;51.568;6.998;2022-08-19T02:46:37;17.82;91.14
64997;SHT31;51545;51.568;6.998;2022-08-19T02:49:04;17.69;91.57
64997;SHT31;51545;51.568;6.998;2022-08-19T02:51:33;17.63;92.10
64997;SHT31;51545;51.568;6.998;2022-08-19T02:54:01;17.60;92.97
64997;SHT31;51545;51.568;6.998;2022-08-19T02:56:28;17.71;92.75
64997;SHT31;51545;51.568;6.998;2022-08-19T02:58:54;17.73;92.26
64997;SHT31;51545;51.568;6.998;2022-08-19T03:01:25;17.74;92.09
64997;SHT31;51545;51.568;6.998;2022-08-19T03:03:58;17.69;91.83
64997;SHT31;51545;51.568;6.998;2022-08-19T03:06:24;17.58;92.65
64997;SHT31;51545;51.568;6.998;2022-08-19T03:08:51;17.63;92.67
64997;SHT31;51545;51.568;6.998;2022-08-19T03:11:24;17.63;92.64
64997;SHT31;51545;51.568;6.998;2022-08-19T03:13:54;17.53;92.20
64997;SHT31;51545;51.568;6.998;2022-08-19T03:16:22;17.51;92.56
64997;SHT31;51545;51.568;6.998;2022-08-19T03:18:50;17.51;92.38
64997;SHT31;51545;51.568;6.998;2022-08-19T03:21:17;17.42;93.56
64997;SHT31;51545;51.568;6.998;2022-08-19T03:23:45;17.47;92.72
64997;SHT31;51545;51.568;6.998;2022-08-19T03:26:10;17.43;92.87
64997;SHT31;51545;51.568;6.998;2022-08-19T03:28:36;17.36;93.98
64997;SHT31;51545;51.568;6.998;2022-08-19T03:31:06;17.37;93.98
64997;SHT31;51545;51.568;6.998;2022-08-19T03:33:36;17.47;93.55
64997;SHT31;51545;51.568;6.998;2022-08-19T03:36:11;17.47;93.13
64997;SHT31;51545;51.568;6.998;2022-08-19T03:38:46;17.46;93.18
64997;SHT31;51545;51.568;6.998;2022-08-19T03:41:16;17.39;92.98
64997;SHT31;51545;51.568;6.998;2022-08-19T03:43:44;17.43;92.78
64997;SHT31;51545;51.568;6.998;2022-08-19T03:46:18;17.36;92.61
64997;SHT31;51545;51.568;6.998;2022-08-19T03:48:46;17.37;92.88
64997;SHT31;51545;51.568;6.998;2022-08-19T03:51:21;17.25;93.61
64997;SHT31;51545;51.568;6.998;2022-08-19T03:53:49;17.27;92.88
64997;SHT31;51545;51.568;6.998;2022-08-19T03:56:16;17.27;93.20
64997;SHT31;51545;51.568;6.998;2022-08-19T03:58:42;17.23;93.64
64997;SHT31;51545;51.568;6.998;2022-08-19T04:01:11;17.29;93.88
64997;SHT31;51545;51.568;6.998;2022-08-19T04:03:39;17.33;93.86
64997;SHT31;51545;51.568;6.998;2022-08-19T04:06:15;17.30;93.84
64997;SHT31;51545;51.568;6.998;2022-08-19T04:08:44;17.27;94.29
64997;SHT31;51545;51.568;6.998;2022-08-19T04:11:11;17.33;94.21
64997;SHT31;51545;51.568;6.998;2022-08-19T04:13:38;17.23;94.36
64997;SHT31;51545;51.568;6.998;2022-08-19T04:16:04;17.18;94.86
64997;SHT31;51545;51.568;6.998;2022-08-19T04:18:31;17.25;94.56
64997;SHT31;51545;51.568;6.998;2022-08-19T04:20:58;17.20;94.35
64997;SHT31;51545;51.568;6.998;2022-08-19T04:23:24;17.23;93.82
64997;SHT31;51545;51.568;6.998;2022-08-19T04:25:50;17.20;93.59
64997;SHT31;51545;51.568;6.998;2022-08-19T04:28:15;17.12;94.04
64997;SHT31;51545;51.568;6.998;2022-08-19T04:30:43;17.19;94.18
64997;SHT31;51545;51.568;6.998;2022-08-19T04:33:19;17.19;93.75
64997;SHT31;51545;51.568;6.998;2022-08-19T04:35:47;17.20;93.84
64997;SHT31;51545;51.568;6.998;2022-08-19T04:38:14;17.15;94.20
64997;SHT31;51545;51.568;6.998;2022-08-19T04:40:45;17.20;93.62
64997;SHT31;51545;51.568;6.998;2022-08-19T04:43:31;17.20;93.42
64997;SHT31;51545;51.568;6.998;2022-08-19T04:45:57;17.18;93.43
64997;SHT31;51545;51.568;6.998;2022-08-19T04:48:23;17.25;93.59
64997;SHT31;51545;51.568;6.998;2022-08-19T04:50:54;17.33;93.50
64997;SHT31;51545;51.568;6.998;2022-08-19T04:53:33;17.35;93.30
64997;SHT31;51545;51.568;6.998;2022-08-19T04:56:03;17.26;93.88
64997;SHT31;51545;51.568;6.998;2022-08-19T04:58:32;17.36;93.79
64997;SHT31;51545;51.568;6.998;2022-08-19T05:00:58;17.36;93.61
64997;SHT31;51545;51.568;6.998;2022-08-19T05:03:25;17.29;93.85
64997;SHT31;51545;51.568;6.998;2022-08-19T05:05:51;17.39;93.58
64997;SHT31;51545;51.568;6.998;2022-08-19T05:08:17;17.44;93.36
64997;SHT31;51545;51.568;6.998;2022-08-19T05:10:46;17.37;93.51
64997;SHT31;51545;51.568;6.998;2022-08-19T05:13:13;17.47;93.28
64997;SHT31;51545;51.568;6.998;2022-08-19T05:15:39;17.49;93.23
64997;SHT31;51545;51.568;6.998;2022-08-19T05:18:05;17.51;93.55
64997;SHT31;51545;51.568;6.998;2022-08-19T05:20:49;17.63;93.81
64997;SHT31;51545;51.568;6.998;2022-08-19T05:23:33;17.73;93.62
64997;SHT31;51545;51.568;6.998;2022-08-19T05:25:59;17.80;93.75
64997;SHT31;51545;51.568;6.998;2022-08-19T05:28:24;17.92;93.11
64997;SHT31;51545;51.568;6.998;2022-08-19T05:30:50;17.95;92.89
64997;SHT31;51545;51.568;6.998;2022-08-19T05:33:16;18.02;92.69
64997;SHT31;51545;51.568;6.998;2022-08-19T05:35:43;18.10;92.60
64997;SHT31;51545;51.568;6.998;2022-08-19T05:38:09;18.23;92.32
64997;SHT31;51545;51.568;6.998;2022-08-19T05:40:36;18.27;91.58
64997;SHT31;51545;51.568;6.998;2022-08-19T05:43:03;18.43;91.44
64997;SHT31;51545;51.568;6.998;2022-08-19T05:45:30;18.34;90.89
64997;SHT31;51545;51.568;6.998;2022-08-19T05:47:56;18.49;91.03
64997;SHT31;51545;51.568;6.998;2022-08-19T05:50:21;18.63;90.83
64997;SHT31;51545;51.568;6.998;2022-08-19T05:52:47;18.63;90.72
64997;SHT31;51545;51.568;6.998;2022-08-19T05:55:13;18.71;90.32
64997;SHT31;51545;51.568;6.998;2022-08-19T05:57:38;18.68;90.22
64997;SHT31;51545;51.568;6.998;2022-08-19T06:00:05;18.64;90.28
64997;SHT31;51545;51.568;6.998;2022-08-19T06:02:35;18.71;90.48
64997;SHT31;51545;51.568;6.998;2022-08-19T06:05:00;18.80;90.73
64997;SHT31;51545;51.568;6.998;2022-08-19T06:07:28;18.82;90.33
64997;SHT31;51545;51.568;6.998;2022-08-19T06:09:54;18.74;89.99
64997;SHT31;51545;51.568;6.998;2022-08-19T06:12:20;18.85;89.78
64997;SHT31;51545;51.568;6.998;2022-08-19T06:14:51;19.01;89.62
64997;SHT31;51545;51.568;6.998;2022-08-19T06:17:17;19.08;89.59
64997;SHT31;51545;51.568;6.998;2022-08-19T06:19:43;19.12;89.51
64997;SHT31;51545;51.568;6.998;2022-08-19T06:22:09;19.09;89.44
64997;SHT31;51545;51.568;6.998;2022-08-19T06:24:37;19.12;89.48
64997;SHT31;51545;51.568;6.998;2022-08-19T06:27:03;19.09;89.41
64997;SHT31;51545;51.568;6.998;2022-08-19T06:29:30;19.05;89.84
64997;SHT31;51545;51.568;6.998;2022-08-19T06:31:58;19.10;89.70
64997;SHT31;51545;51.568;6.998;2022-08-19T06:34:25;19.18;89.64
64997;SHT31;51545;51.568;6.998;2022-08-19T06:36:52;19.26;89.50
64997;SHT31;51545;51.568;6.998;2022-08-19T06:39:22;19.30;89.39
64997;SHT31;51545;51.568;6.998;2022-08-19T06:41:51;19.35;89.24
64997;SHT31;51545;51.568;6.998;2022-08-19T06:44:19;19.44;89.16
64997;SHT31;51545;51.568;6.998;2022-08-19T06:46:47;19.54;89.03
64997;SHT31;51545;51.568;6.998;2022-08-19T06:49:14;19.57;88.72
64997;SHT31;51545;51.568;6.998;2022-08-19T06:51:41;19.57;88.85
64997;SHT31;51545;51.568;6.998;2022-08-19T06:54:08;19.70;88.78
64997;SHT31;51545;51.568;6.998;2022-08-19T06:56:34;19.75;88.39
64997;SHT31;51545;51.568;6.998;2022-08-19T06:59:02;19.91;88.36
64997;SHT31;51545;51.568;6.998;2022-08-19T07:01:39;20.01;87.97
64997;SHT31;51545;51.568;6.998;2022-08-19T07:04:07;20.15;87.49
64997;SHT31;51545;51.568;6.998;2022-08-19T07:06:34;20.20;87.14
64997;SHT31;51545;51.568;6.998;2022-08-19T07:09:02;20.44;86.87
64997;SHT31;51545;51.568;6.998;2022-08-19T07:11:29;20.55;86.32
64997;SHT31;51545;51.568;6.998;2022-08-19T07:13:56;20.57;85.98
64997;SHT31;51545;51.568;6.998;2022-08-19T07:16:21;20.68;85.77
64997;SHT31;51545;51.568;6.998;2022-08-19T07:18:47;20.88;85.36
64997;SHT31;51545;51.568;6.998;2022-08-19T07:21:19;20.98;84.93
64997;SHT31;51545;51.568;6.998;2022-08-19T07:23:51;21.12;84.73
64997;SHT31;51545;51.568;6.998;2022-08-19T07:26:18;21.18;83.69
64997;SHT31;51545;51.568;6.998;2022-08-19T07:28:47;21.24;83.53
64997;SHT31;51545;51.568;6.998;2022-08-19T07:31:15;21.35;83.33
64997;SHT31;51545;51.568;6.998;2022-08-19T07:33:43;21.39;83.12
64997;SHT31;51545;51.568;6.998;2022-08-19T07:36:11;21.36;83.01
64997;SHT31;51545;51.568;6.998;2022-08-19T07:38:38;21.35;82.83
64997;SHT31;51545;51.568;6.998;2022-08-19T07:41:11;21.24;83.07
64997;SHT31;51545;51.568;6.998;2022-08-19T07:43:40;21.30;83.60
64997;SHT31;51545;51.568;6.998;2022-08-19T07:46:06;21.23;83.72
64997;SHT31;51545;51.568;6.998;2022-08-19T07:48:31;21.44;83.01
64997;SHT31;51545;51.568;6.998;2022-08-19T07:51:00;21.51;83.04
64997;SHT31;51545;51.568;6.998;2022-08-19T07:53:28;21.58;82.48
64997;SHT31;51545;51.568;6.998;2022-08-19T07:55:54;21.74;82.45
64997;SHT31;51545;51.568;6.998;2022-08-19T07:58:23;21.98;80.70
64997;SHT31;51545;51.568;6.998;2022-08-19T08:00:49;22.08;81.16
64997;SHT31;51545;51.568;6.998;2022-08-19T08:03:17;22.13;80.88
64997;SHT31;51545;51.568;6.998;2022-08-19T08:05:44;22.33;79.93
64997;SHT31;51545;51.568;6.998;2022-08-19T08:08:28;22.52;79.70
64997;SHT31;51545;51.568;6.998;2022-08-19T08:11:12;22.67;78.81
64997;SHT31;51545;51.568;6.998;2022-08-19T08:13:38;22.78;78.28
64997;SHT31;51545;51.568;6.998;2022-08-19T08:16:06;22.84;78.24
64997;SHT31;51545;51.568;6.998;2022-08-19T08:18:32;23.05;77.38
64997;SHT31;51545;51.568;6.998;2022-08-19T08:20:58;23.16;77.52
64997;SHT31;51545;51.568;6.998;2022-08-19T08:23:23;23.20;77.38
64997;SHT31;51545;51.568;6.998;2022-08-19T08:25:54;23.12;76.92
64997;SHT31;51545;51.568;6.998;2022-08-19T08:28:22;23.16;77.25
64997;SHT31;51545;51.568;6.998;2022-08-19T08:30:48;23.26;76.62
64997;SHT31;51545;51.568;6.998;2022-08-19T08:33:17;22.85;76.68
64997;SHT31;51545;51.568;6.998;2022-08-19T08:35:44;23.15;77.05
64997;SHT31;51545;51.568;6.998;2022-08-19T08:38:10;23.27;76.10
64997;SHT31;51545;51.568;6.998;2022-08-19T08:40:50;23.36;75.76
64997;SHT31;51545;51.568;6.998;2022-08-19T08:43:27;23.43;75.16
64997;SHT31;51545;51.568;6.998;2022-08-19T08:49:16;23.75;74.65
64997;SHT31;51545;51.568;6.998;2022-08-19T08:52:06;23.51;74.71
64997;SHT31;51545;51.568;6.998;2022-08-19T08:54:39;23.44;74.99
64997;SHT31;51545;51.568;6.998;2022-08-19T08:57:10;23.20;75.02
64997;SHT31;51545;51.568;6.998;2022-08-19T08:59:43;23.60;74.77
64997;SHT31;51545;51.568;6.998;2022-08-19T09:02:15;23.99;73.16
64997;SHT31;51545;51.568;6.998;2022-08-19T09:04:41;24.32;72.78
64997;SHT31;51545;51.568;6.998;2022-08-19T09:09:50;24.67;70.59
64997;SHT31;51545;51.568;6.998;2022-08-19T09:12:24;24.95;69.21
64997;SHT31;51545;51.568;6.998;2022-08-19T09:15:06;24.80;69.02
64997;SHT31;51545;51.568;6.998;2022-08-19T09:17:34;24.43;69.29
64997;SHT31;51545;51.568;6.998;2022-08-19T09:20:03;24.22;69.44
64997;SHT31;51545;51.568;6.998;2022-08-19T09:22:32;24.25;69.61
64997;SHT31;51545;51.568;6.998;2022-08-19T09:24:58;24.22;69.28
64997;SHT31;51545;51.568;6.998;2022-08-19T09:27:25;24.19;69.56
64997;SHT31;51545;51.568;6.998;2022-08-19T09:29:52;24.29;69.48
64997;SHT31;51545;51.568;6.998;2022-08-19T09:32:19;23.92;70.08
64997;SHT31;51545;51.568;6.998;2022-08-19T09:34:45;24.19;69.72
64997;SHT31;51545;51.568;6.998;2022-08-19T09:37:10;24.36;69.72
64997;SHT31;51545;51.568;6.998;2022-08-19T09:39:37;24.30;68.81
64997;SHT31;51545;51.568;6.998;2022-08-19T09:42:03;24.73;68.18
64997;SHT31;51545;51.568;6.998;2022-08-19T09:44:30;25.26;67.57
64997;SHT31;51545;51.568;6.998;2022-08-19T09:46:55;25.44;65.20
64997;SHT31;51545;51.568;6.998;2022-08-19T09:49:21;25.07;66.39
64997;SHT31;51545;51.568;6.998;2022-08-19T09:51:53;25.56;66.23
64997;SHT31;51545;51.568;6.998;2022-08-19T09:54:21;25.74;65.26
64997;SHT31;51545;51.568;6.998;2022-08-19T09:56:47;25.51;64.98
64997;SHT31;51545;51.568;6.998;2022-08-19T09:59:13;25.74;64.16
64997;SHT31;51545;51.568;6.998;2022-08-19T10:01:39;26.22;62.85
64997;SHT31;51545;51.568;6.998;2022-08-19T10:04:05;26.12;63.29
64997;SHT31;51545;51.568;6.998;2022-08-19T10:06:34;26.16;63.05
64997;SHT31;51545;51.568;6.998;2022-08-19T10:09:00;26.12;63.25
64997;SHT31;51545;51.568;6.998;2022-08-19T10:11:29;25.92;62.84
64997;SHT31;51545;51.568;6.998;2022-08-19T10:13:54;25.90;63.66
64997;SHT31;51545;51.568;6.998;2022-08-19T10:16:20;26.01;64.62
64997;SHT31;51545;51.568;6.998;2022-08-19T10:18:47;26.67;63.07
64997;SHT31;51545;51.568;6.998;2022-08-19T10:23:40;26.43;62.76
64997;SHT31;51545;51.568;6.998;2022-08-19T10:26:11;26.35;62.01
64997;SHT31;51545;51.568;6.998;2022-08-19T10:28:38;25.90;62.95
64997;SHT31;51545;51.568;6.998;2022-08-19T10:31:07;27.01;61.06
64997;SHT31;51545;51.568;6.998;2022-08-19T10:33:36;26.22;60.82
64997;SHT31;51545;51.568;6.998;2022-08-19T10:36:06;26.53;61.45
64997;SHT31;51545;51.568;6.998;2022-08-19T10:38:34;26.01;61.32
64997;SHT31;51545;51.568;6.998;2022-08-19T10:41:07;25.50;63.00
64997;SHT31;51545;51.568;6.998;2022-08-19T10:43:40;25.36;63.26
64997;SHT31;51545;51.568;6.998;2022-08-19T10:46:10;25.49;63.50
64997;SHT31;51545;51.568;6.998;2022-08-19T10:48:38;26.16;61.88
64997;SHT31;51545;51.568;6.998;2022-08-19T10:51:04;26.86;60.51
64997;SHT31;51545;51.568;6.998;2022-08-19T10:53:49;26.68;60.95
64997;SHT31;51545;51.568;6.998;2022-08-19T10:56:15;27.81;57.54
64997;SHT31;51545;51.568;6.998;2022-08-19T10:58:59;27.54;57.60
64997;SHT31;51545;51.568;6.998;2022-08-19T11:01:26;27.87;57.74
64997;SHT31;51545;51.568;6.998;2022-08-19T11:03:52;27.73;56.09
64997;SHT31;51545;51.568;6.998;2022-08-19T11:06:18;27.87;55.82
64997;SHT31;51545;51.568;6.998;2022-08-19T11:08:45;27.57;57.34
64997;SHT31;51545;51.568;6.998;2022-08-19T11:11:11;27.43;56.13
64997;SHT31;51545;51.568;6.998;2022-08-19T11:13:38;27.63;58.03
64997;SHT31;51545;51.568;6.998;2022-08-19T11:16:07;27.47;57.44
64997;SHT31;51545;51.568;6.998;2022-08-19T11:18:40;28.01;55.36
64997;SHT31;51545;51.568;6.998;2022-08-19T11:21:10;28.60;54.03
64997;SHT31;51545;51.568;6.998;2022-08-19T11:23:42;28.84;53.61
64997;SHT31;51545;51.568;6.998;2022-08-19T11:26:08;28.94;54.16
64997;SHT31;51545;51.568;6.998;2022-08-19T11:28:34;28.32;54.20
64997;SHT31;51545;51.568;6.998;2022-08-19T11:31:00;27.97;56.13
64997;SHT31;51545;51.568;6.998;2022-08-19T11:33:28;28.91;53.34
64997;SHT31;51545;51.568;6.998;2022-08-19T11:35:56;28.50;53.33
64997;SHT31;51545;51.568;6.998;2022-08-19T11:38:24;29.22;51.89
64997;SHT31;51545;51.568;6.998;2022-08-19T11:41:00;28.47;53.36
64997;SHT31;51545;51.568;6.998;2022-08-19T11:43:27;28.56;53.35
64997;SHT31;51545;51.568;6.998;2022-08-19T11:45:53;28.71;52.97
64997;SHT31;51545;51.568;6.998;2022-08-19T11:48:20;27.42;55.87
64997;SHT31;51545;51.568;6.998;2022-08-19T11:50:49;28.29;54.77
64997;SHT31;51545;51.568;6.998;2022-08-19T11:53:16;28.62;52.36
64997;SHT31;51545;51.568;6.998;2022-08-19T11:55:43;29.15;52.50
64997;SHT31;51545;51.568;6.998;2022-08-19T11:58:10;29.67;51.37
64997;SHT31;51545;51.568;6.998;2022-08-19T12:00:37;29.98;47.75
64997;SHT31;51545;51.568;6.998;2022-08-19T12:03:03;29.53;48.94
64997;SHT31;51545;51.568;6.998;2022-08-19T12:05:29;29.28;49.82
64997;SHT31;51545;51.568;6.998;2022-08-19T12:07:54;29.01;50.86
64997;SHT31;51545;51.568;6.998;2022-08-19T12:10:21;29.90;49.06
64997;SHT31;51545;51.568;6.998;2022-08-19T12:12:47;30.02;49.66
64997;SHT31;51545;51.568;6.998;2022-08-19T12:15:13;30.45;45.95
64997;SHT31;51545;51.568;6.998;2022-08-19T12:17:39;30.14;47.44
64997;SHT31;51545;51.568;6.998;2022-08-19T12:20:07;30.01;48.43
64997;SHT31;51545;51.568;6.998;2022-08-19T12:22:36;29.80;48.72
64997;SHT31;51545;51.568;6.998;2022-08-19T12:25:04;28.92;50.05
64997;SHT31;51545;51.568;6.998;2022-08-19T12:27:30;28.67;52.22
64997;SHT31;51545;51.568;6.998;2022-08-19T12:29:56;28.50;52.06
64997;SHT31;51545;51.568;6.998;2022-08-19T12:32:22;28.33;52.14
64997;SHT31;51545;51.568;6.998;2022-08-19T12:34:49;28.12;52.49
64997;SHT31;51545;51.568;6.998;2022-08-19T12:37:15;28.71;50.80
64997;SHT31;51545;51.568;6.998;2022-08-19T12:39:42;28.71;49.88
64997;SHT31;51545;51.568;6.998;2022-08-19T12:42:09;27.97;51.09
64997;SHT31;51545;51.568;6.998;2022-08-19T12:44:36;27.38;51.19
64997;SHT31;51545;51.568;6.998;2022-08-19T12:47:04;27.67;51.27
64997;SHT31;51545;51.568;6.998;2022-08-19T12:49:31;29.09;48.94
64997;SHT31;51545;51.568;6.998;2022-08-19T12:51:59;29.64;47.07
64997;SHT31;51545;51.568;6.998;2022-08-19T12:54:25;30.88;45.59
64997;SHT31;51545;51.568;6.998;2022-08-19T12:56:51;30.73;44.87
64997;SHT31;51545;51.568;6.998;2022-08-19T12:59:17;31.25;44.21
64997;SHT31;51545;51.568;6.998;2022-08-19T13:01:45;32.21;43.61
64997;SHT31;51545;51.568;6.998;2022-08-19T13:04:11;32.60;41.11
64997;SHT31;51545;51.568;6.998;2022-08-19T13:06:36;30.66;44.04
64997;SHT31;51545;51.568;6.998;2022-08-19T13:09:02;31.46;43.24
64997;SHT31;51545;51.568;6.998;2022-08-19T13:11:28;32.69;41.85
64997;SHT31;51545;51.568;6.998;2022-08-19T13:13:57;31.94;41.97
64997;SHT31;51545;51.568;6.998;2022-08-19T13:16:23;31.83;42.10
64997;SHT31;51545;51.568;6.998;2022-08-19T13:18:49;32.23;40.87
64997;SHT31;51545;51.568;6.998;2022-08-19T13:21:18;29.62;45.43
64997;SHT31;51545;51.568;6.998;2022-08-19T13:23:46;28.94;47.43
64997;SHT31;51545;51.568;6.998;2022-08-19T13:26:12;29.94;45.91
64997;SHT31;51545;51.568;6.998;2022-08-19T13:28:38;30.11;45.32
64997;SHT31;51545;51.568;6.998;2022-08-19T13:31:23;31.67;43.12
64997;SHT31;51545;51.568;6.998;2022-08-19T13:34:08;32.29;42.95
64997;SHT31;51545;51.568;6.998;2022-08-19T13:36:35;32.08;41.90
64997;SHT31;51545;51.568;6.998;2022-08-19T13:39:01;32.46;41.91
64997;SHT31;51545;51.568;6.998;2022-08-19T13:41:27;31.81;42.53
64997;SHT31;51545;51.568;6.998;2022-08-19T13:43:53;31.98;41.84
64997;SHT31;51545;51.568;6.998;2022-08-19T13:46:19;32.69;41.44
64997;SHT31;51545;51.568;6.998;2022-08-19T13:48:45;33.37;38.42
64997;SHT31;51545;51.568;6.998;2022-08-19T13:51:13;32.99;39.37
64997;SHT31;51545;51.568;6.998;2022-08-19T13:53:41;31.65;41.61
64997;SHT31;51545;51.568;6.998;2022-08-19T13:56:08;29.87;45.56
64997;SHT31;51545;51.568;6.998;2022-08-19T13:58:39;31.03;44.71
64997;SHT31;51545;51.568;6.998;2022-08-19T14:01:05;32.42;41.77
64997;SHT31;51545;51.568;6.998;2022-08-19T14:03:31;34.66;37.55
64997;SHT31;51545;51.568;6.998;2022-08-19T14:05:57;32.94;40.52
64997;SHT31;51545;51.568;6.998;2022-08-19T14:08:23;32.48;42.08
64997;SHT31;51545;51.568;6.998;2022-08-19T14:10:49;30.52;43.70
64997;SHT31;51545;51.568;6.998;2022-08-19T14:13:16;30.15;44.45
64997;SHT31;51545;51.568;6.998;2022-08-19T14:15:44;29.76;45.70
64997;SHT31;51545;51.568;6.998;2022-08-19T14:18:10;32.24;41.29
64997;SHT31;51545;51.568;6.998;2022-08-19T14:20:36;34.12;39.19
64997;SHT31;51545;51.568;6.998;2022-08-19T14:23:02;32.91;39.58
64997;SHT31;51545;51.568;6.998;2022-08-19T14:25:30;33.49;39.87
64997;SHT31;51545;51.568;6.998;2022-08-19T14:27:56;32.75;39.86
64997;SHT31;51545;51.568;6.998;2022-08-19T14:30:27;31.96;41.25
64997;SHT31;51545;51.568;6.998;2022-08-19T14:32:55;31.29;41.96
64997;SHT31;51545;51.568;6.998;2022-08-19T14:35:23;32.51;40.65
64997;SHT31;51545;51.568;6.998;2022-08-19T14:37:48;32.07;41.76
64997;SHT31;51545;51.568;6.998;2022-08-19T14:40:17;31.24;42.05
64997;SHT31;51545;51.568;6.998;2022-08-19T14:42:48;29.70;45.94
64997;SHT31;51545;51.568;6.998;2022-08-19T14:45:13;30.14;46.28
64997;SHT31;51545;51.568;6.998;2022-08-19T14:47:39;30.08;46.03
64997;SHT31;51545;51.568;6.998;2022-08-19T14:50:09;29.70;46.55
64997;SHT31;51545;51.568;6.998;2022-08-19T14:52:36;28.14;50.41
64997;SHT31;51545;51.568;6.998;2022-08-19T14:55:02;28.29;51.18
64997;SHT31;51545;51.568;6.998;2022-08-19T14:57:29;29.36;48.62
64997;SHT31;51545;51.568;6.998;2022-08-19T14:59:54;30.33;46.97
64997;SHT31;51545;51.568;6.998;2022-08-19T15:02:19;31.60;44.73
64997;SHT31;51545;51.568;6.998;2022-08-19T15:04:45;31.66;44.09
64997;SHT31;51545;51.568;6.998;2022-08-19T15:07:11;31.10;44.33
64997;SHT31;51545;51.568;6.998;2022-08-19T15:09:37;31.94;43.18
64997;SHT31;51545;51.568;6.998;2022-08-19T15:12:03;30.57;45.41
64997;SHT31;51545;51.568;6.998;2022-08-19T15:14:30;30.55;44.53
64997;SHT31;51545;51.568;6.998;2022-08-19T15:17:00;31.19;43.92
64997;SHT31;51545;51.568;6.998;2022-08-19T15:19:27;32.17;42.33
64997;SHT31;51545;51.568;6.998;2022-08-19T15:21:53;31.81;42.87
64997;SHT31;51545;51.568;6.998;2022-08-19T15:24:19;32.39;41.54
64997;SHT31;51545;51.568;6.998;2022-08-19T15:26:45;32.43;41.70
64997;SHT31;51545;51.568;6.998;2022-08-19T15:29:11;32.32;41.38
64997;SHT31;51545;51.568;6.998;2022-08-19T15:31:41;31.77;40.87
64997;SHT31;51545;51.568;6.998;2022-08-19T15:34:07;31.96;41.05
64997;SHT31;51545;51.568;6.998;2022-08-19T15:36:33;32.32;40.76
64997;SHT31;51545;51.568;6.998;2022-08-19T15:39:00;32.28;40.71
64997;SHT31;51545;51.568;6.998;2022-08-19T15:41:27;31.35;41.41